Lakeville, Michigan
Current Conditions -  °F | °C
As of 8:53 PM on Friday 19 Dec 2014 (Local Time) from KPTK Reporting Station
Few Clouds Few Clouds  
Wind Chill: 16°   Ceiling: Unl
Heat Index: 22°   Visibility: 10mi
Dew Point: 18°   Wind: 5mph
Humidity: 85%   Direction: 290°WNW
Pressure: 30.29"   Gusts: NA
Location:  42.82°N, 83.15°W
Report Text: KPTK 200153Z 29004KT 10SM FEW250 M06/M08 A3029 RMK AO2 SLP271 T10561078
Loading
Personal Weather Stations






























Interactive Weather Map New forecast layout! Learn more

10-Day Weather Forecast

Advertisements
Track Severe Weather on mobile